sensor_id;sensor_type;location;lat;lon;timestamp;temperature;humidity
61841;DHT22;47773;53.174;6.614;2024-01-07T00:01:58;0.40;99.90
61841;DHT22;47773;53.174;6.614;2024-01-07T00:04:24;0.40;99.90
61841;DHT22;47773;53.174;6.614;2024-01-07T00:06:49;0.40;99.90
61841;DHT22;47773;53.174;6.614;2024-01-07T00:09:16;0.50;99.90
61841;DHT22;47773;53.174;6.614;2024-01-07T00:11:41;0.50;99.90
61841;DHT22;47773;53.174;6.614;2024-01-07T00:14:07;0.50;99.90
61841;DHT22;47773;53.174;6.614;2024-01-07T00:16:33;0.50;99.90
61841;DHT22;47773;53.174;6.614;2024-01-07T00:18:59;0.50;99.90
61841;DHT22;47773;53.174;6.614;2024-01-07T00:21:25;0.50;99.90
61841;DHT22;47773;53.174;6.614;2024-01-07T00:23:51;0.50;99.90
61841;DHT22;47773;53.174;6.614;2024-01-07T00:26:16;0.50;99.90
61841;DHT22;47773;53.174;6.614;2024-01-07T00:28:42;0.50;99.90
61841;DHT22;47773;53.174;6.614;2024-01-07T00:31:07;0.50;99.90
61841;DHT22;47773;53.174;6.614;2024-01-07T00:33:34;0.50;99.90
61841;DHT22;47773;53.174;6.614;2024-01-07T00:36:01;0.40;99.90
61841;DHT22;47773;53.174;6.614;2024-01-07T00:38:27;0.40;99.90
61841;DHT22;47773;53.174;6.614;2024-01-07T00:40:53;0.40;99.90
61841;DHT22;47773;53.174;6.614;2024-01-07T00:43:19;0.40;99.90
61841;DHT22;47773;53.174;6.614;2024-01-07T00:45:44;0.40;99.90
61841;DHT22;47773;53.174;6.614;2024-01-07T00:48:10;0.40;99.90
61841;DHT22;47773;53.174;6.614;2024-01-07T00:50:36;0.40;99.90
61841;DHT22;47773;53.174;6.614;2024-01-07T00:53:01;0.40;99.90
61841;DHT22;47773;53.174;6.614;2024-01-07T00:55:27;0.40;99.90
61841;DHT22;47773;53.174;6.614;2024-01-07T00:57:53;0.40;99.90
61841;DHT22;47773;53.174;6.614;2024-01-07T01:00:19;0.40;99.90
61841;DHT22;47773;53.174;6.614;2024-01-07T01:02:45;0.40;99.90
61841;DHT22;47773;53.174;6.614;2024-01-07T01:05:11;0.40;99.90
61841;DHT22;47773;53.174;6.614;2024-01-07T01:07:36;0.40;99.90
61841;DHT22;47773;53.174;6.614;2024-01-07T01:10:02;0.40;99.90
61841;DHT22;47773;53.174;6.614;2024-01-07T01:12:28;0.40;99.90
61841;DHT22;47773;53.174;6.614;2024-01-07T01:14:54;0.40;99.90
61841;DHT22;47773;53.174;6.614;2024-01-07T01:17:19;0.40;99.90
61841;DHT22;47773;53.174;6.614;2024-01-07T01:19:45;0.50;99.90
61841;DHT22;47773;53.174;6.614;2024-01-07T01:22:11;0.40;99.90
61841;DHT22;47773;53.174;6.614;2024-01-07T01:24:36;0.50;99.90
61841;DHT22;47773;53.174;6.614;2024-01-07T01:27:02;0.50;99.90
61841;DHT22;47773;53.174;6.614;2024-01-07T01:29:28;0.50;99.90
61841;DHT22;47773;53.174;6.614;2024-01-07T01:31:54;0.50;99.90
61841;DHT22;47773;53.174;6.614;2024-01-07T01:34:19;0.50;99.90
61841;DHT22;47773;53.174;6.614;2024-01-07T01:36:45;0.50;99.90
61841;DHT22;47773;53.174;6.614;2024-01-07T01:39:11;0.40;99.90
61841;DHT22;47773;53.174;6.614;2024-01-07T01:41:36;0.40;99.90
61841;DHT22;47773;53.174;6.614;2024-01-07T01:44:02;0.40;99.90
61841;DHT22;47773;53.174;6.614;2024-01-07T01:46:29;0.40;99.90
61841;DHT22;47773;53.174;6.614;2024-01-07T01:48:55;0.40;99.90
61841;DHT22;47773;53.174;6.614;2024-01-07T01:51:21;0.40;99.90
61841;DHT22;47773;53.174;6.614;2024-01-07T01:53:48;0.30;99.90
61841;DHT22;47773;53.174;6.614;2024-01-07T01:56:17;0.30;99.90
61841;DHT22;47773;53.174;6.614;2024-01-07T01:58:44;0.30;99.90
61841;DHT22;47773;53.174;6.614;2024-01-07T02:01:10;0.30;99.90
61841;DHT22;47773;53.174;6.614;2024-01-07T02:03:36;0.30;99.90
61841;DHT22;47773;53.174;6.614;2024-01-07T02:06:02;0.30;99.90
61841;DHT22;47773;53.174;6.614;2024-01-07T02:08:27;0.30;99.90
61841;DHT22;47773;53.174;6.614;2024-01-07T02:10:53;0.30;99.90
61841;DHT22;47773;53.174;6.614;2024-01-07T02:13:19;0.30;99.90
61841;DHT22;47773;53.174;6.614;2024-01-07T02:15:44;0.30;99.90
61841;DHT22;47773;53.174;6.614;2024-01-07T02:18:10;0.30;99.90
61841;DHT22;47773;53.174;6.614;2024-01-07T02:20:36;0.30;99.90
61841;DHT22;47773;53.174;6.614;2024-01-07T02:23:04;0.30;99.90
61841;DHT22;47773;53.174;6.614;2024-01-07T02:25:35;0.30;99.90
61841;DHT22;47773;53.174;6.614;2024-01-07T02:28:01;0.30;99.90
61841;DHT22;47773;53.174;6.614;2024-01-07T02:30:27;0.30;99.90
61841;DHT22;47773;53.174;6.614;2024-01-07T02:32:52;0.20;99.90
61841;DHT22;47773;53.174;6.614;2024-01-07T02:35:18;0.30;99.90
61841;DHT22;47773;53.174;6.614;2024-01-07T02:37:44;0.20;99.90
61841;DHT22;47773;53.174;6.614;2024-01-07T02:40:10;0.30;99.90
61841;DHT22;47773;53.174;6.614;2024-01-07T02:42:35;0.30;99.90
61841;DHT22;47773;53.174;6.614;2024-01-07T02:45:01;0.30;99.90
61841;DHT22;47773;53.174;6.614;2024-01-07T02:47:27;0.30;99.90
61841;DHT22;47773;53.174;6.614;2024-01-07T02:49:52;0.30;99.90
61841;DHT22;47773;53.174;6.614;2024-01-07T02:52:18;0.30;99.90
61841;DHT22;47773;53.174;6.614;2024-01-07T02:54:43;0.30;99.90
61841;DHT22;47773;53.174;6.614;2024-01-07T02:57:09;0.40;99.90
61841;DHT22;47773;53.174;6.614;2024-01-07T02:59:35;0.40;99.90
61841;DHT22;47773;53.174;6.614;2024-01-07T03:02:00;0.40;99.90
61841;DHT22;47773;53.174;6.614;2024-01-07T03:04:26;0.40;99.90
61841;DHT22;47773;53.174;6.614;2024-01-07T03:06:52;0.40;99.90
61841;DHT22;47773;53.174;6.614;2024-01-07T03:09:17;0.40;99.90
61841;DHT22;47773;53.174;6.614;2024-01-07T03:11:43;0.40;99.90
61841;DHT22;47773;53.174;6.614;2024-01-07T03:14:09;0.40;99.90
61841;DHT22;47773;53.174;6.614;2024-01-07T03:16:35;0.40;99.90
61841;DHT22;47773;53.174;6.614;2024-01-07T03:19:01;0.40;99.90
61841;DHT22;47773;53.174;6.614;2024-01-07T03:21:27;0.40;99.90
61841;DHT22;47773;53.174;6.614;2024-01-07T03:23:53;0.40;99.90
61841;DHT22;47773;53.174;6.614;2024-01-07T03:26:19;0.40;99.90
61841;DHT22;47773;53.174;6.614;2024-01-07T03:28:45;0.40;99.90
61841;DHT22;47773;53.174;6.614;2024-01-07T03:31:12;0.40;99.90
61841;DHT22;47773;53.174;6.614;2024-01-07T03:33:39;0.40;99.90
61841;DHT22;47773;53.174;6.614;2024-01-07T03:36:09;0.40;99.90
61841;DHT22;47773;53.174;6.614;2024-01-07T03:38:35;0.40;99.90
61841;DHT22;47773;53.174;6.614;2024-01-07T03:41:01;0.40;99.90
61841;DHT22;47773;53.174;6.614;2024-01-07T03:43:27;0.40;99.90
61841;DHT22;47773;53.174;6.614;2024-01-07T03:45:52;0.40;99.90
61841;DHT22;47773;53.174;6.614;2024-01-07T03:48:18;0.40;99.90
61841;DHT22;47773;53.174;6.614;2024-01-07T03:50:43;0.40;99.90
61841;DHT22;47773;53.174;6.614;2024-01-07T03:53:09;0.40;99.90
61841;DHT22;47773;53.174;6.614;2024-01-07T03:55:35;0.40;99.90
61841;DHT22;47773;53.174;6.614;2024-01-07T03:58:00;0.40;99.90
61841;DHT22;47773;53.174;6.614;2024-01-07T04:00:26;0.40;99.90
61841;DHT22;47773;53.174;6.614;2024-01-07T04:02:52;0.30;99.90
61841;DHT22;47773;53.174;6.614;2024-01-07T04:05:17;0.40;99.90
61841;DHT22;47773;53.174;6.614;2024-01-07T04:07:43;0.30;99.90
61841;DHT22;47773;53.174;6.614;2024-01-07T04:10:09;0.30;99.90
61841;DHT22;47773;53.174;6.614;2024-01-07T04:12:34;0.40;99.90
61841;DHT22;47773;53.174;6.614;2024-01-07T04:15:00;0.40;99.90
61841;DHT22;47773;53.174;6.614;2024-01-07T04:17:26;0.30;99.90
61841;DHT22;47773;53.174;6.614;2024-01-07T04:19:52;0.30;99.90
61841;DHT22;47773;53.174;6.614;2024-01-07T04:22:18;0.30;99.90
61841;DHT22;47773;53.174;6.614;2024-01-07T04:24:44;0.30;99.90
61841;DHT22;47773;53.174;6.614;2024-01-07T04:27:09;0.30;99.90
61841;DHT22;47773;53.174;6.614;2024-01-07T04:29:35;0.30;99.90
61841;DHT22;47773;53.174;6.614;2024-01-07T04:32:01;0.30;99.90
61841;DHT22;47773;53.174;6.614;2024-01-07T04:34:27;0.30;99.90
61841;DHT22;47773;53.174;6.614;2024-01-07T04:36:52;0.40;99.90
61841;DHT22;47773;53.174;6.614;2024-01-07T04:39:18;0.40;99.90
61841;DHT22;47773;53.174;6.614;2024-01-07T04:41:44;0.40;99.90
61841;DHT22;47773;53.174;6.614;2024-01-07T04:44:09;0.40;99.90
61841;DHT22;47773;53.174;6.614;2024-01-07T04:46:38;0.40;99.90
61841;DHT22;47773;53.174;6.614;2024-01-07T04:49:04;0.40;99.90
61841;DHT22;47773;53.174;6.614;2024-01-07T04:51:31;0.40;99.90
61841;DHT22;47773;53.174;6.614;2024-01-07T04:53:57;0.40;99.90
61841;DHT22;47773;53.174;6.614;2024-01-07T04:56:22;0.40;99.90
61841;DHT22;47773;53.174;6.614;2024-01-07T04:58:48;0.40;99.90
61841;DHT22;47773;53.174;6.614;2024-01-07T05:01:14;0.40;99.90
61841;DHT22;47773;53.174;6.614;2024-01-07T05:03:40;0.40;99.90
61841;DHT22;47773;53.174;6.614;2024-01-07T05:06:08;0.40;99.90
61841;DHT22;47773;53.174;6.614;2024-01-07T05:08:35;0.40;99.90
61841;DHT22;47773;53.174;6.614;2024-01-07T05:11:01;0.40;99.90
61841;DHT22;47773;53.174;6.614;2024-01-07T05:13:26;0.40;99.90
61841;DHT22;47773;53.174;6.614;2024-01-07T05:15:52;0.40;99.90
61841;DHT22;47773;53.174;6.614;2024-01-07T05:18:28;0.50;99.90
61841;DHT22;47773;53.174;6.614;2024-01-07T05:20:54;0.40;99.90
61841;DHT22;47773;53.174;6.614;2024-01-07T05:23:20;0.50;99.90
61841;DHT22;47773;53.174;6.614;2024-01-07T05:25:46;0.50;99.90
61841;DHT22;47773;53.174;6.614;2024-01-07T05:28:12;0.50;99.90
61841;DHT22;47773;53.174;6.614;2024-01-07T05:30:38;0.50;99.90
61841;DHT22;47773;53.174;6.614;2024-01-07T05:33:04;0.50;99.90
61841;DHT22;47773;53.174;6.614;2024-01-07T05:35:32;0.50;99.90
61841;DHT22;47773;53.174;6.614;2024-01-07T05:37:58;0.50;99.90
61841;DHT22;47773;53.174;6.614;2024-01-07T05:40:24;0.50;99.90
61841;DHT22;47773;53.174;6.614;2024-01-07T05:42:50;0.50;99.90
61841;DHT22;47773;53.174;6.614;2024-01-07T05:45:15;0.50;99.90
61841;DHT22;47773;53.174;6.614;2024-01-07T05:47:41;0.50;99.90
61841;DHT22;47773;53.174;6.614;2024-01-07T05:50:07;0.50;99.90
61841;DHT22;47773;53.174;6.614;2024-01-07T05:52:33;0.50;99.90
61841;DHT22;47773;53.174;6.614;2024-01-07T05:54:59;0.50;99.90
61841;DHT22;47773;53.174;6.614;2024-01-07T05:57:25;0.50;99.90
61841;DHT22;47773;53.174;6.614;2024-01-07T05:59:50;0.50;99.90
61841;DHT22;47773;53.174;6.614;2024-01-07T06:02:17;0.50;99.90
61841;DHT22;47773;53.174;6.614;2024-01-07T06:04:43;0.50;99.90
61841;DHT22;47773;53.174;6.614;2024-01-07T06:07:09;0.50;99.90
61841;DHT22;47773;53.174;6.614;2024-01-07T06:09:34;0.50;99.90
61841;DHT22;47773;53.174;6.614;2024-01-07T06:12:00;0.50;99.90
61841;DHT22;47773;53.174;6.614;2024-01-07T06:14:26;0.50;99.90
61841;DHT22;47773;53.174;6.614;2024-01-07T06:16:52;0.50;99.90
61841;DHT22;47773;53.174;6.614;2024-01-07T06:19:18;0.50;99.90
61841;DHT22;47773;53.174;6.614;2024-01-07T06:21:44;0.60;99.90
61841;DHT22;47773;53.174;6.614;2024-01-07T06:24:11;0.50;99.90
61841;DHT22;47773;53.174;6.614;2024-01-07T06:26:36;0.50;99.90
61841;DHT22;47773;53.174;6.614;2024-01-07T06:29:02;0.60;99.90
61841;DHT22;47773;53.174;6.614;2024-01-07T06:31:28;0.50;99.90
61841;DHT22;47773;53.174;6.614;2024-01-07T06:33:53;0.50;99.90
61841;DHT22;47773;53.174;6.614;2024-01-07T06:36:22;0.60;99.90
61841;DHT22;47773;53.174;6.614;2024-01-07T06:38:47;0.50;99.90
61841;DHT22;47773;53.174;6.614;2024-01-07T06:41:15;0.50;99.90
61841;DHT22;47773;53.174;6.614;2024-01-07T06:43:41;0.50;99.90
61841;DHT22;47773;53.174;6.614;2024-01-07T06:46:06;0.50;99.90
61841;DHT22;47773;53.174;6.614;2024-01-07T06:48:32;0.50;99.90
61841;DHT22;47773;53.174;6.614;2024-01-07T06:50:58;0.50;99.90
61841;DHT22;47773;53.174;6.614;2024-01-07T06:53:23;0.50;99.90
61841;DHT22;47773;53.174;6.614;2024-01-07T06:55:49;0.50;99.90
61841;DHT22;47773;53.174;6.614;2024-01-07T06:58:15;0.50;99.90
61841;DHT22;47773;53.174;6.614;2024-01-07T07:00:41;0.50;99.90
61841;DHT22;47773;53.174;6.614;2024-01-07T07:03:06;0.50;99.90
61841;DHT22;47773;53.174;6.614;2024-01-07T07:05:33;0.40;99.90
61841;DHT22;47773;53.174;6.614;2024-01-07T07:07:58;0.40;99.90
61841;DHT22;47773;53.174;6.614;2024-01-07T07:10:24;0.40;99.90
61841;DHT22;47773;53.174;6.614;2024-01-07T07:12:50;0.40;99.90
61841;DHT22;47773;53.174;6.614;2024-01-07T07:15:18;0.40;99.90
61841;DHT22;47773;53.174;6.614;2024-01-07T07:17:44;0.40;99.90
61841;DHT22;47773;53.174;6.614;2024-01-07T07:20:10;0.40;99.90
61841;DHT22;47773;53.174;6.614;2024-01-07T07:22:36;0.40;99.90
61841;DHT22;47773;53.174;6.614;2024-01-07T07:25:02;0.40;99.90
61841;DHT22;47773;53.174;6.614;2024-01-07T07:27:28;0.30;99.90
61841;DHT22;47773;53.174;6.614;2024-01-07T07:29:53;0.30;99.90
61841;DHT22;47773;53.174;6.614;2024-01-07T07:32:19;0.30;99.90
61841;DHT22;47773;53.174;6.614;2024-01-07T07:34:44;0.20;99.90
61841;DHT22;47773;53.174;6.614;2024-01-07T07:37:10;0.20;99.90
61841;DHT22;47773;53.174;6.614;2024-01-07T07:39:36;0.20;99.90
61841;DHT22;47773;53.174;6.614;2024-01-07T07:42:01;0.10;99.90
61841;DHT22;47773;53.174;6.614;2024-01-07T07:44:27;0.10;99.90
61841;DHT22;47773;53.174;6.614;2024-01-07T07:46:53;0.10;99.90
61841;DHT22;47773;53.174;6.614;2024-01-07T07:49:18;0.10;99.90
61841;DHT22;47773;53.174;6.614;2024-01-07T07:51:44;0.00;99.90
61841;DHT22;47773;53.174;6.614;2024-01-07T07:54:10;0.00;99.90
61841;DHT22;47773;53.174;6.614;2024-01-07T07:56:35;0.00;99.90
61841;DHT22;47773;53.174;6.614;2024-01-07T07:59:02;0.00;99.90
61841;DHT22;47773;53.174;6.614;2024-01-07T08:01:28;0.00;99.90
61841;DHT22;47773;53.174;6.614;2024-01-07T08:03:54;0.00;99.90
61841;DHT22;47773;53.174;6.614;2024-01-07T08:06:20;0.00;99.90
61841;DHT22;47773;53.174;6.614;2024-01-07T08:08:45;0.00;99.90
61841;DHT22;47773;53.174;6.614;2024-01-07T08:11:11;0.10;99.90
61841;DHT22;47773;53.174;6.614;2024-01-07T08:13:37;0.00;99.90
61841;DHT22;47773;53.174;6.614;2024-01-07T08:16:04;0.10;99.90
61841;DHT22;47773;53.174;6.614;2024-01-07T08:18:31;0.10;99.90
61841;DHT22;47773;53.174;6.614;2024-01-07T08:20:57;0.20;99.90
61841;DHT22;47773;53.174;6.614;2024-01-07T08:23:24;0.20;99.90
61841;DHT22;47773;53.174;6.614;2024-01-07T08:25:50;0.30;99.90
61841;DHT22;47773;53.174;6.614;2024-01-07T08:28:17;0.30;99.90
61841;DHT22;47773;53.174;6.614;2024-01-07T08:30:44;0.30;99.90
61841;DHT22;47773;53.174;6.614;2024-01-07T08:33:10;0.30;99.90
61841;DHT22;47773;53.174;6.614;2024-01-07T08:35:36;0.30;99.90
61841;DHT22;47773;53.174;6.614;2024-01-07T08:38:01;0.40;99.90
61841;DHT22;47773;53.174;6.614;2024-01-07T08:40:27;0.40;99.90
61841;DHT22;47773;53.174;6.614;2024-01-07T08:42:54;0.40;99.90
61841;DHT22;47773;53.174;6.614;2024-01-07T08:45:20;0.40;99.90
61841;DHT22;47773;53.174;6.614;2024-01-07T08:47:46;0.40;99.90
61841;DHT22;47773;53.174;6.614;2024-01-07T08:50:12;0.40;99.90
61841;DHT22;47773;53.174;6.614;2024-01-07T08:52:38;0.50;99.90
61841;DHT22;47773;53.174;6.614;2024-01-07T08:55:04;0.50;99.90
61841;DHT22;47773;53.174;6.614;2024-01-07T08:57:32;0.50;99.90
61841;DHT22;47773;53.174;6.614;2024-01-07T08:59:58;0.60;99.90
61841;DHT22;47773;53.174;6.614;2024-01-07T09:02:24;0.60;99.90
61841;DHT22;47773;53.174;6.614;2024-01-07T09:04:51;0.60;99.90
61841;DHT22;47773;53.174;6.614;2024-01-07T09:07:17;0.60;99.90
61841;DHT22;47773;53.174;6.614;2024-01-07T09:09:42;0.60;99.90
61841;DHT22;47773;53.174;6.614;2024-01-07T09:12:08;0.60;99.90
61841;DHT22;47773;53.174;6.614;2024-01-07T09:14:34;0.70;99.90
61841;DHT22;47773;53.174;6.614;2024-01-07T09:16:59;0.70;99.90
61841;DHT22;47773;53.174;6.614;2024-01-07T09:19:25;0.70;99.90
61841;DHT22;47773;53.174;6.614;2024-01-07T09:21:51;0.70;99.90
61841;DHT22;47773;53.174;6.614;2024-01-07T09:24:17;0.70;99.90
61841;DHT22;47773;53.174;6.614;2024-01-07T09:26:44;0.80;99.90
61841;DHT22;47773;53.174;6.614;2024-01-07T09:29:09;0.80;99.90
61841;DHT22;47773;53.174;6.614;2024-01-07T09:31:36;0.80;99.90
61841;DHT22;47773;53.174;6.614;2024-01-07T09:34:01;0.80;99.90
61841;DHT22;47773;53.174;6.614;2024-01-07T09:36:27;0.90;99.90
61841;DHT22;47773;53.174;6.614;2024-01-07T09:38:53;0.80;99.90
61841;DHT22;47773;53.174;6.614;2024-01-07T09:41:19;0.90;99.90
61841;DHT22;47773;53.174;6.614;2024-01-07T09:43:45;0.90;99.90
61841;DHT22;47773;53.174;6.614;2024-01-07T09:46:10;0.90;99.90
61841;DHT22;47773;53.174;6.614;2024-01-07T09:48:37;0.90;99.90
61841;DHT22;47773;53.174;6.614;2024-01-07T09:51:04;0.90;99.90
61841;DHT22;47773;53.174;6.614;2024-01-07T09:53:34;0.90;99.90
61841;DHT22;47773;53.174;6.614;2024-01-07T09:56:18;1.00;99.90
61841;DHT22;47773;53.174;6.614;2024-01-07T09:58:46;1.00;99.90
61841;DHT22;47773;53.174;6.614;2024-01-07T10:01:17;1.00;99.90
61841;DHT22;47773;53.174;6.614;2024-01-07T10:03:42;1.00;99.90
61841;DHT22;47773;53.174;6.614;2024-01-07T10:06:10;1.00;99.90
61841;DHT22;47773;53.174;6.614;2024-01-07T10:08:35;1.10;99.90
61841;DHT22;47773;53.174;6.614;2024-01-07T10:11:01;1.10;99.90
61841;DHT22;47773;53.174;6.614;2024-01-07T10:13:28;1.10;99.90
61841;DHT22;47773;53.174;6.614;2024-01-07T10:15:54;1.20;99.90
61841;DHT22;47773;53.174;6.614;2024-01-07T10:18:20;1.20;99.90
61841;DHT22;47773;53.174;6.614;2024-01-07T10:20:46;1.20;99.90
61841;DHT22;47773;53.174;6.614;2024-01-07T10:23:12;1.20;99.90
61841;DHT22;47773;53.174;6.614;2024-01-07T10:25:37;1.30;99.90
61841;DHT22;47773;53.174;6.614;2024-01-07T10:28:03;1.30;99.90
61841;DHT22;47773;53.174;6.614;2024-01-07T10:30:29;1.30;99.90
61841;DHT22;47773;53.174;6.614;2024-01-07T10:32:57;1.30;99.90
61841;DHT22;47773;53.174;6.614;2024-01-07T10:35:32;1.40;99.90
61841;DHT22;47773;53.174;6.614;2024-01-07T10:37:59;1.40;99.90
61841;DHT22;47773;53.174;6.614;2024-01-07T10:40:27;1.40;99.90
61841;DHT22;47773;53.174;6.614;2024-01-07T10:42:54;1.50;99.90
61841;DHT22;47773;53.174;6.614;2024-01-07T10:45:21;1.50;99.90
61841;DHT22;47773;53.174;6.614;2024-01-07T10:47:51;1.50;99.90
61841;DHT22;47773;53.174;6.614;2024-01-07T10:50:19;1.50;99.90
61841;DHT22;47773;53.174;6.614;2024-01-07T10:52:50;1.50;99.90
61841;DHT22;47773;53.174;6.614;2024-01-07T10:55:18;1.60;99.90
61841;DHT22;47773;53.174;6.614;2024-01-07T10:57:46;1.70;99.90
61841;DHT22;47773;53.174;6.614;2024-01-07T11:00:13;1.80;99.90
61841;DHT22;47773;53.174;6.614;2024-01-07T11:03:09;1.80;99.90
61841;DHT22;47773;53.174;6.614;2024-01-07T11:05:59;1.80;99.90
61841;DHT22;47773;53.174;6.614;2024-01-07T11:08:39;1.80;99.90
61841;DHT22;47773;53.174;6.614;2024-01-07T11:11:12;1.80;99.90
61841;DHT22;47773;53.174;6.614;2024-01-07T11:13:39;1.80;99.90
61841;DHT22;47773;53.174;6.614;2024-01-07T11:16:06;1.70;99.90
61841;DHT22;47773;53.174;6.614;2024-01-07T11:18:38;1.70;99.90
61841;DHT22;47773;53.174;6.614;2024-01-07T11:21:05;1.80;99.90
61841;DHT22;47773;53.174;6.614;2024-01-07T11:23:43;1.80;99.90
61841;DHT22;47773;53.174;6.614;2024-01-07T11:26:09;1.80;99.90
61841;DHT22;47773;53.174;6.614;2024-01-07T11:28:49;1.80;99.90
61841;DHT22;47773;53.174;6.614;2024-01-07T11:31:17;1.80;99.90
61841;DHT22;47773;53.174;6.614;2024-01-07T11:33:52;1.80;99.90
61841;DHT22;47773;53.174;6.614;2024-01-07T11:36:20;1.80;99.90
61841;DHT22;47773;53.174;6.614;2024-01-07T11:38:48;1.70;99.90
61841;DHT22;47773;53.174;6.614;2024-01-07T11:41:15;1.60;99.90
61841;DHT22;47773;53.174;6.614;2024-01-07T11:43:58;1.60;99.90
61841;DHT22;47773;53.174;6.614;2024-01-07T11:46:27;1.60;99.90
61841;DHT22;47773;53.174;6.614;2024-01-07T11:48:55;1.50;99.90
61841;DHT22;47773;53.174;6.614;2024-01-07T11:51:30;1.60;99.90
61841;DHT22;47773;53.174;6.614;2024-01-07T11:54:00;1.50;99.90
61841;DHT22;47773;53.174;6.614;2024-01-07T11:56:27;1.60;99.90
61841;DHT22;47773;53.174;6.614;2024-01-07T11:58:53;1.50;99.90
61841;DHT22;47773;53.174;6.614;2024-01-07T12:01:19;1.60;99.90
61841;DHT22;47773;53.174;6.614;2024-01-07T12:03:45;1.50;99.90
61841;DHT22;47773;53.174;6.614;2024-01-07T12:06:12;1.50;99.90
61841;DHT22;47773;53.174;6.614;2024-01-07T12:08:44;1.60;99.90
61841;DHT22;47773;53.174;6.614;2024-01-07T12:11:13;1.60;99.90
61841;DHT22;47773;53.174;6.614;2024-01-07T12:13:39;1.60;99.90
61841;DHT22;47773;53.174;6.614;2024-01-07T12:16:06;1.60;99.90
61841;DHT22;47773;53.174;6.614;2024-01-07T12:18:32;1.60;99.90
61841;DHT22;47773;53.174;6.614;2024-01-07T12:20:59;1.60;99.90
61841;DHT22;47773;53.174;6.614;2024-01-07T12:23:26;1.60;99.90
61841;DHT22;47773;53.174;6.614;2024-01-07T12:25:55;1.60;99.90
61841;DHT22;47773;53.174;6.614;2024-01-07T12:28:23;1.60;99.90
61841;DHT22;47773;53.174;6.614;2024-01-07T12:30:49;1.50;99.90
61841;DHT22;47773;53.174;6.614;2024-01-07T12:33:18;1.50;99.90
61841;DHT22;47773;53.174;6.614;2024-01-07T12:35:46;1.40;99.90
61841;DHT22;47773;53.174;6.614;2024-01-07T12:38:12;1.40;99.90
61841;DHT22;47773;53.174;6.614;2024-01-07T12:40:37;1.40;99.90
61841;DHT22;47773;53.174;6.614;2024-01-07T12:43:04;1.40;99.90
61841;DHT22;47773;53.174;6.614;2024-01-07T12:45:32;1.30;99.90
61841;DHT22;47773;53.174;6.614;2024-01-07T12:47:58;1.30;99.90
61841;DHT22;47773;53.174;6.614;2024-01-07T12:50:27;1.30;99.90
61841;DHT22;47773;53.174;6.614;2024-01-07T12:52:55;1.30;99.90
61841;DHT22;47773;53.174;6.614;2024-01-07T12:55:22;1.20;99.90
61841;DHT22;47773;53.174;6.614;2024-01-07T12:57:48;1.20;99.90
61841;DHT22;47773;53.174;6.614;2024-01-07T13:00:15;1.20;99.90
61841;DHT22;47773;53.174;6.614;2024-01-07T13:02:41;1.10;99.90
61841;DHT22;47773;53.174;6.614;2024-01-07T13:05:07;1.10;99.90
61841;DHT22;47773;53.174;6.614;2024-01-07T13:07:32;1.10;99.90
61841;DHT22;47773;53.174;6.614;2024-01-07T13:09:58;1.20;99.90
61841;DHT22;47773;53.174;6.614;2024-01-07T13:12:24;1.20;99.90
61841;DHT22;47773;53.174;6.614;2024-01-07T13:14:50;1.30;99.90
61841;DHT22;47773;53.174;6.614;2024-01-07T13:17:16;1.40;99.90
61841;DHT22;47773;53.174;6.614;2024-01-07T13:19:41;1.40;99.90
61841;DHT22;47773;53.174;6.614;2024-01-07T13:22:08;1.30;99.90
61841;DHT22;47773;53.174;6.614;2024-01-07T13:24:34;1.20;99.90
61841;DHT22;47773;53.174;6.614;2024-01-07T13:27:00;1.20;99.90
61841;DHT22;47773;53.174;6.614;2024-01-07T13:29:26;1.10;99.90
61841;DHT22;47773;53.174;6.614;2024-01-07T13:31:51;1.10;99.90
61841;DHT22;47773;53.174;6.614;2024-01-07T13:34:17;1.10;99.90
61841;DHT22;47773;53.174;6.614;2024-01-07T13:36:44;1.10;99.90
61841;DHT22;47773;53.174;6.614;2024-01-07T13:39:09;1.10;99.90
61841;DHT22;47773;53.174;6.614;2024-01-07T13:41:36;1.10;99.90
61841;DHT22;47773;53.174;6.614;2024-01-07T13:44:02;1.20;99.90
61841;DHT22;47773;53.174;6.614;2024-01-07T13:46:30;1.20;99.90
61841;DHT22;47773;53.174;6.614;2024-01-07T13:48:56;1.20;99.90
61841;DHT22;47773;53.174;6.614;2024-01-07T13:51:21;1.20;99.90
61841;DHT22;47773;53.174;6.614;2024-01-07T13:53:47;1.20;99.90
61841;DHT22;47773;53.174;6.614;2024-01-07T13:56:13;1.20;99.90
61841;DHT22;47773;53.174;6.614;2024-01-07T13:58:39;1.20;99.90
61841;DHT22;47773;53.174;6.614;2024-01-07T14:01:04;1.20;99.90
61841;DHT22;47773;53.174;6.614;2024-01-07T14:03:33;1.20;99.90
61841;DHT22;47773;53.174;6.614;2024-01-07T14:05:59;1.10;99.90
61841;DHT22;47773;53.174;6.614;2024-01-07T14:08:26;1.10;99.90
61841;DHT22;47773;53.174;6.614;2024-01-07T14:10:52;1.10;99.90
61841;DHT22;47773;53.174;6.614;2024-01-07T14:13:17;1.10;99.90
61841;DHT22;47773;53.174;6.614;2024-01-07T14:15:44;1.10;99.90
61841;DHT22;47773;53.174;6.614;2024-01-07T14:18:10;1.10;99.90
61841;DHT22;47773;53.174;6.614;2024-01-07T14:20:40;1.10;99.90
61841;DHT22;47773;53.174;6.614;2024-01-07T14:23:06;1.10;99.90
61841;DHT22;47773;53.174;6.614;2024-01-07T14:25:31;1.10;99.90
61841;DHT22;47773;53.174;6.614;2024-01-07T14:27:57;1.10;99.90
61841;DHT22;47773;53.174;6.614;2024-01-07T14:30:22;1.10;99.90
61841;DHT22;47773;53.174;6.614;2024-01-07T14:32:48;1.10;99.90
61841;DHT22;47773;53.174;6.614;2024-01-07T14:35:14;1.10;99.90
61841;DHT22;47773;53.174;6.614;2024-01-07T14:37:39;1.10;99.90
61841;DHT22;47773;53.174;6.614;2024-01-07T14:40:06;1.00;99.90
61841;DHT22;47773;53.174;6.614;2024-01-07T14:42:32;1.00;99.90
61841;DHT22;47773;53.174;6.614;2024-01-07T14:44:57;1.00;99.90
61841;DHT22;47773;53.174;6.614;2024-01-07T14:47:23;1.00;99.90
61841;DHT22;47773;53.174;6.614;2024-01-07T14:49:49;1.00;99.90
61841;DHT22;47773;53.174;6.614;2024-01-07T14:52:14;1.00;99.90
61841;DHT22;47773;53.174;6.614;2024-01-07T14:54:40;0.90;99.90
61841;DHT22;47773;53.174;6.614;2024-01-07T14:57:06;0.90;99.90
61841;DHT22;47773;53.174;6.614;2024-01-07T14:59:34;0.90;99.90
61841;DHT22;47773;53.174;6.614;2024-01-07T15:02:01;0.90;99.90
61841;DHT22;47773;53.174;6.614;2024-01-07T15:04:28;0.90;99.90
61841;DHT22;47773;53.174;6.614;2024-01-07T15:06:53;0.80;99.90
61841;DHT22;47773;53.174;6.614;2024-01-07T15:09:19;0.80;99.90
61841;DHT22;47773;53.174;6.614;2024-01-07T15:11:46;0.70;99.90
61841;DHT22;47773;53.174;6.614;2024-01-07T15:14:14;0.70;99.90
61841;DHT22;47773;53.174;6.614;2024-01-07T15:16:40;0.70;99.90
61841;DHT22;47773;53.174;6.614;2024-01-07T15:19:05;0.70;99.90
61841;DHT22;47773;53.174;6.614;2024-01-07T15:21:31;0.60;99.90
61841;DHT22;47773;53.174;6.614;2024-01-07T15:23:57;0.60;99.90
61841;DHT22;47773;53.174;6.614;2024-01-07T15:26:23;0.60;99.90
61841;DHT22;47773;53.174;6.614;2024-01-07T15:28:48;0.60;99.90
61841;DHT22;47773;53.174;6.614;2024-01-07T15:31:14;0.50;99.90
61841;DHT22;47773;53.174;6.614;2024-01-07T15:33:40;0.50;99.90
61841;DHT22;47773;53.174;6.614;2024-01-07T15:36:06;0.50;99.90
61841;DHT22;47773;53.174;6.614;2024-01-07T15:38:32;0.50;99.90
61841;DHT22;47773;53.174;6.614;2024-01-07T15:40:57;0.40;99.90